Time;durP1;ratioP1;P1;durP2;ratioP2;P2;SDS_P1;SDS_P2;PMS_P1;PMS_P2;Temp;Humidity;BMP_temperature;BMP_pressure;BME280_temperature;BME280_humidity;BME280_pressure;Samples;Min_cycle;Max_cycle;Signal;HPM_P1;HPM_P2
2022/10/09 00:02:04;;;;;;;;;;;5.90;99.90;;;;;;5073778;28;19916;-90
2022/10/09 00:04:29;;;;;;;;;;;6.00;99.90;;;;;;5056733;28;19934;-91
2022/10/09 00:06:55;;;;;;;;;;;6.00;99.90;;;;;;5074390;28;19956;-90
2022/10/09 00:09:20;;;;;;;;;;;5.90;99.90;;;;;;5090293;28;20356;-90
2022/10/09 00:15:15;;;;;;;;;;;6.00;99.90;;;;;;5068983;28;19924;-90
2022/10/09 00:17:41;;;;;;;;;;;6.00;99.90;;;;;;5056568;28;19908;-90
2022/10/09 00:20:07;;;;;;;;;;;6.00;99.90;;;;;;5057238;28;20244;-89
2022/10/09 00:22:32;;;;;;;;;;;6.10;99.90;;;;;;5056816;28;19995;-89
2022/10/09 00:24:58;;;;;;;;;;;6.10;99.90;;;;;;5090058;28;19927;-89
2022/10/09 00:27:23;;;;;;;;;;;6.20;99.90;;;;;;5056530;28;19915;-89
2022/10/09 00:29:49;;;;;;;;;;;6.20;99.90;;;;;;5090472;28;19912;-89
2022/10/09 00:32:15;;;;;;;;;;;6.20;99.90;;;;;;5073296;28;19912;-90
2022/10/09 00:34:40;;;;;;;;;;;6.20;99.90;;;;;;5056362;28;19915;-90
2022/10/09 00:37:06;;;;;;;;;;;6.30;99.90;;;;;;5056562;28;19959;-90
2022/10/09 00:39:32;;;;;;;;;;;6.20;99.90;;;;;;5073477;28;19962;-90
2022/10/09 00:41:57;;;;;;;;;;;6.30;99.90;;;;;;5090032;28;19915;-90
2022/10/09 00:44:42;;;;;;;;;;;6.30;99.90;;;;;;5072710;28;19915;-89
2022/10/09 00:47:13;;;;;;;;;;;6.20;99.90;;;;;;5099153;28;20316;-89
2022/10/09 00:49:39;;;;;;;;;;;6.10;99.90;;;;;;5073406;28;19908;-91
2022/10/09 00:52:06;;;;;;;;;;;6.20;99.90;;;;;;5056223;28;19904;-89
2022/10/09 00:54:33;;;;;;;;;;;6.20;99.90;;;;;;5055765;28;19935;-90
2022/10/09 00:56:59;;;;;;;;;;;6.20;99.90;;;;;;5089824;28;19916;-90
2022/10/09 00:59:25;;;;;;;;;;;6.20;99.90;;;;;;5056951;28;19909;-90
2022/10/09 01:01:50;;;;;;;;;;;6.20;99.90;;;;;;5074727;28;20275;-90
2022/10/09 01:04:16;;;;;;;;;;;6.20;99.90;;;;;;5078183;28;19910;-89
2022/10/09 01:07:00;;;;;;;;;;;6.20;99.90;;;;;;5077061;28;19912;-90
2022/10/09 01:09:38;;;;;;;;;;;6.00;99.90;;;;;;5078174;28;19914;-90
2022/10/09 01:12:09;;;;;;;;;;;6.10;99.90;;;;;;5091546;28;19912;-91
2022/10/09 01:14:43;;;;;;;;;;;6.00;99.90;;;;;;5077225;28;19923;-90
2022/10/09 01:17:16;;;;;;;;;;;5.90;99.90;;;;;;5091855;28;19915;-90
2022/10/09 01:19:45;;;;;;;;;;;5.90;99.90;;;;;;5110769;28;20347;-90
2022/10/09 01:22:29;;;;;;;;;;;5.90;99.90;;;;;;5076668;28;20553;-90
2022/10/09 01:25:06;;;;;;;;;;;5.90;99.90;;;;;;5076392;28;19934;-89
2022/10/09 01:27:32;;;;;;;;;;;5.80;99.90;;;;;;5059930;28;19908;-90
2022/10/09 01:30:03;;;;;;;;;;;5.70;99.90;;;;;;5077057;28;19908;-90
2022/10/09 01:32:37;;;;;;;;;;;5.80;99.90;;;;;;5076422;28;19912;-89
2022/10/09 01:35:04;;;;;;;;;;;5.90;99.90;;;;;;5110522;28;19913;-90
2022/10/09 01:37:30;;;;;;;;;;;5.90;99.90;;;;;;5076527;28;20387;-89
2022/10/09 01:39:57;;;;;;;;;;;5.90;99.90;;;;;;5093925;28;19911;-90
2022/10/09 01:42:23;;;;;;;;;;;5.90;99.90;;;;;;5076739;28;19912;-90
2022/10/09 01:44:48;;;;;;;;;;;6.00;99.90;;;;;;5093101;28;20356;-91
2022/10/09 01:47:15;;;;;;;;;;;6.00;99.90;;;;;;5076572;28;19908;-90
2022/10/09 01:49:56;;;;;;;;;;;6.10;99.90;;;;;;5076317;28;19962;-90
2022/10/09 01:52:31;;;;;;;;;;;6.10;99.90;;;;;;5060023;28;19982;-89
2022/10/09 01:55:15;;;;;;;;;;;6.10;99.90;;;;;;5109109;28;19908;-90
2022/10/09 01:57:48;;;;;;;;;;;6.10;99.90;;;;;;5076175;28;19912;-90
2022/10/09 02:00:14;;;;;;;;;;;6.10;99.90;;;;;;5075969;28;19913;-89
2022/10/09 02:02:41;;;;;;;;;;;6.00;99.90;;;;;;5093037;28;20621;-90
2022/10/09 02:05:13;;;;;;;;;;;6.00;99.90;;;;;;5058800;28;19995;-90
2022/10/09 02:07:48;;;;;;;;;;;6.00;99.90;;;;;;5092878;28;19908;-90
2022/10/09 02:10:16;;;;;;;;;;;6.00;99.90;;;;;;5076033;28;20007;-90
2022/10/09 02:12:44;;;;;;;;;;;5.90;99.90;;;;;;5109114;28;19916;-90
2022/10/09 02:15:10;;;;;;;;;;;5.90;99.90;;;;;;5075715;28;19908;-90
2022/10/09 02:17:37;;;;;;;;;;;5.90;99.90;;;;;;5075660;28;19923;-90
2022/10/09 02:20:06;;;;;;;;;;;5.90;99.90;;;;;;5092876;28;19919;-90
2022/10/09 02:22:33;;;;;;;;;;;5.80;99.90;;;;;;5055012;28;19912;-90
2022/10/09 02:25:00;;;;;;;;;;;5.70;99.90;;;;;;5075195;28;19974;-90
2022/10/09 02:27:26;;;;;;;;;;;5.80;99.90;;;;;;5058402;28;19916;-89
2022/10/09 02:29:52;;;;;;;;;;;5.90;99.90;;;;;;5092518;28;20006;-90
2022/10/09 02:32:18;;;;;;;;;;;5.80;99.90;;;;;;5075497;28;20526;-90
2022/10/09 02:34:43;;;;;;;;;;;5.80;99.90;;;;;;5092733;28;19918;-90
2022/10/09 02:37:09;;;;;;;;;;;5.70;99.90;;;;;;5075439;28;19954;-91
2022/10/09 02:39:34;;;;;;;;;;;5.80;99.90;;;;;;5092362;28;19912;-90
2022/10/09 02:42:00;;;;;;;;;;;5.60;99.90;;;;;;5075596;28;19908;-90
2022/10/09 02:44:26;;;;;;;;;;;5.60;99.90;;;;;;5058507;28;19909;-89
2022/10/09 02:49:58;;;;;;;;;;;5.50;99.90;;;;;;5108614;28;19997;-91
2022/10/09 02:52:23;;;;;;;;;;;5.50;99.90;;;;;;5074316;28;19904;-90
2022/10/09 02:54:49;;;;;;;;;;;5.40;99.90;;;;;;5091335;28;19909;-89
2022/10/09 02:57:15;;;;;;;;;;;5.50;99.90;;;;;;5075014;28;20264;-90
2022/10/09 02:59:40;;;;;;;;;;;5.30;99.90;;;;;;5074674;28;19909;-91
2022/10/09 03:02:06;;;;;;;;;;;5.20;99.90;;;;;;5092192;28;19908;-90
2022/10/09 03:04:50;;;;;;;;;;;5.10;99.90;;;;;;5075926;28;19912;-90
2022/10/09 03:07:15;;;;;;;;;;;5.10;99.90;;;;;;5085017;28;20375;-90
2022/10/09 03:09:41;;;;;;;;;;;5.10;99.90;;;;;;5074802;28;19908;-90
2022/10/09 03:12:07;;;;;;;;;;;5.10;99.90;;;;;;5058031;28;19918;-90
2022/10/09 03:14:33;;;;;;;;;;;5.00;99.90;;;;;;5057629;28;20034;-89
2022/10/09 03:16:59;;;;;;;;;;;5.00;99.90;;;;;;5074645;28;19908;-90
2022/10/09 03:19:25;;;;;;;;;;;5.00;99.90;;;;;;5075978;28;19908;-89
2022/10/09 03:21:50;;;;;;;;;;;5.10;99.90;;;;;;5057901;28;19916;-90
2022/10/09 03:24:16;;;;;;;;;;;5.10;99.90;;;;;;5108120;28;20348;-89
2022/10/09 03:30:10;;;;;;;;;;;5.00;99.90;;;;;;5068890;28;19914;-90
2022/10/09 03:32:35;;;;;;;;;;;5.20;99.90;;;;;;5074414;28;20003;-89
2022/10/09 03:35:01;;;;;;;;;;;5.30;99.90;;;;;;5091134;28;19909;-90
2022/10/09 03:37:27;;;;;;;;;;;5.40;99.90;;;;;;5057624;28;19908;-89
2022/10/09 03:39:52;;;;;;;;;;;5.40;99.90;;;;;;5091169;28;19915;-90
2022/10/09 03:42:18;;;;;;;;;;;5.50;99.90;;;;;;5073839;28;19908;-90
2022/10/09 03:44:43;;;;;;;;;;;5.40;99.90;;;;;;5091128;28;19967;-90
2022/10/09 03:47:09;;;;;;;;;;;5.40;99.90;;;;;;5074511;28;19908;-90
2022/10/09 03:49:35;;;;;;;;;;;5.40;99.90;;;;;;5073735;28;20283;-90
2022/10/09 03:55:29;;;;;;;;;;;5.40;99.90;;;;;;5075633;28;19919;-90
2022/10/09 03:57:54;;;;;;;;;;;5.40;99.90;;;;;;5073858;28;20430;-90
2022/10/09 04:00:20;;;;;;;;;;;5.40;99.90;;;;;;5056916;28;19913;-90
2022/10/09 04:02:45;;;;;;;;;;;5.40;99.90;;;;;;5107865;28;19934;-90
2022/10/09 04:05:11;;;;;;;;;;;5.30;99.90;;;;;;5073956;28;20023;-90
2022/10/09 04:07:36;;;;;;;;;;;5.40;99.90;;;;;;5073787;28;19919;-91
2022/10/09 04:10:03;;;;;;;;;;;5.30;99.90;;;;;;5057039;28;19909;-91
2022/10/09 04:12:28;;;;;;;;;;;5.30;99.90;;;;;;5074107;28;19912;-90
2022/10/09 04:14:55;;;;;;;;;;;5.30;99.90;;;;;;5074777;28;20053;-91
2022/10/09 04:17:20;;;;;;;;;;;5.30;99.90;;;;;;5057309;28;20374;-91
2022/10/09 04:19:46;;;;;;;;;;;5.30;99.90;;;;;;5074072;28;19908;-90
2022/10/09 04:22:11;;;;;;;;;;;5.30;99.90;;;;;;5056942;28;20345;-90
2022/10/09 04:24:37;;;;;;;;;;;5.40;99.90;;;;;;5073981;28;19909;-90
2022/10/09 04:27:03;;;;;;;;;;;5.30;99.90;;;;;;5073897;28;19915;-90
2022/10/09 04:29:28;;;;;;;;;;;5.30;99.90;;;;;;5073324;28;19915;-90
2022/10/09 04:31:54;;;;;;;;;;;5.30;99.90;;;;;;5073438;28;20608;-90
2022/10/09 04:34:19;;;;;;;;;;;5.30;99.90;;;;;;5057261;28;19918;-90
2022/10/09 04:36:45;;;;;;;;;;;5.40;99.90;;;;;;5073463;28;19908;-90
2022/10/09 04:39:10;;;;;;;;;;;5.40;99.90;;;;;;5056803;28;20131;-90
2022/10/09 04:41:36;;;;;;;;;;;5.30;99.90;;;;;;5090734;28;19995;-90
2022/10/09 04:44:17;;;;;;;;;;;5.30;99.90;;;;;;5073472;28;20360;-90
2022/10/09 04:46:48;;;;;;;;;;;5.40;99.90;;;;;;5090359;28;19915;-90
2022/10/09 04:49:14;;;;;;;;;;;5.40;99.90;;;;;;5073372;28;19908;-90
2022/10/09 04:51:39;;;;;;;;;;;5.40;99.90;;;;;;5073812;28;20237;-90
2022/10/09 04:54:05;;;;;;;;;;;5.40;99.90;;;;;;5056612;28;20371;-90
2022/10/09 04:56:31;;;;;;;;;;;5.40;99.90;;;;;;5090603;28;20021;-90
2022/10/09 04:58:56;;;;;;;;;;;5.40;99.90;;;;;;5106918;28;20008;-90
2022/10/09 05:01:23;;;;;;;;;;;5.40;99.90;;;;;;5073746;28;19919;-90
2022/10/09 05:03:49;;;;;;;;;;;5.30;99.90;;;;;;5071285;28;20356;-90
2022/10/09 05:06:15;;;;;;;;;;;5.30;99.90;;;;;;5073665;28;19908;-90
2022/10/09 05:08:41;;;;;;;;;;;5.30;99.90;;;;;;5073392;28;19931;-90
2022/10/09 05:11:08;;;;;;;;;;;5.30;99.90;;;;;;5074688;28;20022;-89
2022/10/09 05:13:35;;;;;;;;;;;5.30;99.90;;;;;;5073102;28;19912;-90
2022/10/09 05:16:02;;;;;;;;;;;5.40;99.90;;;;;;5090339;28;20050;-89
2022/10/09 05:18:27;;;;;;;;;;;5.40;99.90;;;;;;5073139;28;19908;-89
2022/10/09 05:20:53;;;;;;;;;;;5.30;99.90;;;;;;5056727;28;20374;-90
2022/10/09 05:23:19;;;;;;;;;;;5.40;99.90;;;;;;5056835;28;19931;-90
2022/10/09 05:25:52;;;;;;;;;;;5.40;99.90;;;;;;5074364;28;19915;-90
2022/10/09 05:28:18;;;;;;;;;;;5.30;99.90;;;;;;5056965;28;19909;-90
2022/10/09 05:30:43;;;;;;;;;;;5.40;99.90;;;;;;5056489;28;19905;-90
2022/10/09 05:33:09;;;;;;;;;;;5.40;99.90;;;;;;5056465;28;20015;-90
2022/10/09 05:35:34;;;;;;;;;;;5.50;99.90;;;;;;5072791;28;19954;-91
2022/10/09 05:38:00;;;;;;;;;;;5.50;99.90;;;;;;5086576;28;19954;-88
2022/10/09 05:40:26;;;;;;;;;;;5.50;99.90;;;;;;5071200;28;19908;-89
2022/10/09 05:42:51;;;;;;;;;;;5.50;99.90;;;;;;5071420;28;19943;-89
2022/10/09 05:45:17;;;;;;;;;;;5.50;99.90;;;;;;5071443;28;19913;-88
2022/10/09 05:47:42;;;;;;;;;;;5.50;99.90;;;;;;5055074;28;20387;-88
2022/10/09 05:50:08;;;;;;;;;;;5.60;99.90;;;;;;5057978;28;19908;-89
2022/10/09 05:52:34;;;;;;;;;;;5.60;99.90;;;;;;5058665;28;20663;-88
2022/10/09 05:54:59;;;;;;;;;;;5.60;99.90;;;;;;5092058;28;20046;-88
2022/10/09 05:57:25;;;;;;;;;;;5.60;99.90;;;;;;5075363;28;20366;-88
2022/10/09 05:59:51;;;;;;;;;;;5.60;99.90;;;;;;5058094;28;20363;-88
2022/10/09 06:02:16;;;;;;;;;;;5.60;99.90;;;;;;5091917;28;20014;-89
2022/10/09 06:04:42;;;;;;;;;;;5.60;99.90;;;;;;5058251;28;19925;-88
2022/10/09 06:07:09;;;;;;;;;;;5.60;99.90;;;;;;5075264;28;19908;-88
2022/10/09 06:09:34;;;;;;;;;;;5.70;99.90;;;;;;5058463;28;20430;-89
2022/10/09 06:12:00;;;;;;;;;;;5.70;99.90;;;;;;5058075;28;19918;-88
2022/10/09 06:14:26;;;;;;;;;;;5.70;99.90;;;;;;5070935;28;19919;-89
2022/10/09 06:16:51;;;;;;;;;;;5.80;99.90;;;;;;5073223;28;19989;-89
2022/10/09 06:19:18;;;;;;;;;;;5.80;99.90;;;;;;5074841;28;19955;-89
2022/10/09 06:21:44;;;;;;;;;;;5.90;99.90;;;;;;5058213;28;19958;-89
2022/10/09 06:24:15;;;;;;;;;;;5.90;99.90;;;;;;5058075;28;19915;-89
2022/10/09 06:26:40;;;;;;;;;;;6.00;99.90;;;;;;5108764;28;19974;-89
2022/10/09 06:29:12;;;;;;;;;;;6.10;99.90;;;;;;5074487;28;20290;-88
2022/10/09 06:31:38;;;;;;;;;;;6.20;99.90;;;;;;5057625;28;20363;-89
2022/10/09 06:34:03;;;;;;;;;;;6.40;99.90;;;;;;5105216;28;19963;-89
2022/10/09 06:36:31;;;;;;;;;;;6.40;99.90;;;;;;5108800;28;19916;-88
2022/10/09 06:38:58;;;;;;;;;;;6.70;99.90;;;;;;5074160;28;19909;-90
2022/10/09 06:41:24;;;;;;;;;;;6.80;99.90;;;;;;5091334;28;19978;-89
2022/10/09 06:43:51;;;;;;;;;;;6.90;99.90;;;;;;5057349;28;19955;-88
2022/10/09 06:46:17;;;;;;;;;;;6.90;99.90;;;;;;5057801;28;20416;-88
2022/10/09 06:48:43;;;;;;;;;;;7.00;99.90;;;;;;5074464;28;19991;-89
2022/10/09 06:51:13;;;;;;;;;;;7.00;99.90;;;;;;5074465;28;19995;-89
2022/10/09 06:53:40;;;;;;;;;;;7.10;99.90;;;;;;5091220;28;19916;-89
2022/10/09 06:56:07;;;;;;;;;;;7.10;99.90;;;;;;5074709;28;20007;-89
2022/10/09 06:58:33;;;;;;;;;;;7.10;99.90;;;;;;5108566;28;20071;-88
2022/10/09 07:01:14;;;;;;;;;;;7.20;99.90;;;;;;5107699;28;19917;-88
2022/10/09 07:03:41;;;;;;;;;;;7.40;99.90;;;;;;5057904;28;20439;-89
2022/10/09 07:06:08;;;;;;;;;;;7.40;99.90;;;;;;5074870;28;20355;-88
2022/10/09 07:08:33;;;;;;;;;;;7.60;99.90;;;;;;5041361;28;20003;-90
2022/10/09 07:10:59;;;;;;;;;;;7.60;99.90;;;;;;5074541;28;19951;-89
2022/10/09 07:13:25;;;;;;;;;;;7.80;99.90;;;;;;5058255;28;19912;-89
2022/10/09 07:15:50;;;;;;;;;;;7.90;99.90;;;;;;5091503;28;19987;-90
2022/10/09 07:18:16;;;;;;;;;;;8.00;99.90;;;;;;5075942;28;19973;-90
2022/10/09 07:20:41;;;;;;;;;;;8.10;99.90;;;;;;5074350;28;19919;-88
2022/10/09 07:23:07;;;;;;;;;;;8.10;99.90;;;;;;5075259;28;19908;-88
2022/10/09 07:25:38;;;;;;;;;;;8.10;99.90;;;;;;5074627;28;19947;-88
2022/10/09 07:28:04;;;;;;;;;;;8.20;99.90;;;;;;5083774;28;19908;-89
2022/10/09 07:30:30;;;;;;;;;;;8.30;99.90;;;;;;5057797;28;19908;-89
2022/10/09 07:32:55;;;;;;;;;;;8.40;99.90;;;;;;5073703;28;19917;-90
2022/10/09 07:35:21;;;;;;;;;;;8.40;99.90;;;;;;5074768;28;20378;-89
2022/10/09 07:37:46;;;;;;;;;;;8.40;99.90;;;;;;5074566;28;20244;-89
2022/10/09 07:40:12;;;;;;;;;;;8.40;99.90;;;;;;5074713;28;20003;-90
2022/10/09 07:42:56;;;;;;;;;;;8.50;99.90;;;;;;5057411;28;19908;-89
2022/10/09 07:45:22;;;;;;;;;;;8.60;99.90;;;;;;5073616;28;19912;-90
2022/10/09 07:47:47;;;;;;;;;;;8.60;99.90;;;;;;5057448;28;20410;-89
2022/10/09 07:50:13;;;;;;;;;;;8.80;99.90;;;;;;5074289;28;19904;-88
2022/10/09 07:52:38;;;;;;;;;;;8.70;99.90;;;;;;5073803;28;19908;-88
2022/10/09 07:55:04;;;;;;;;;;;8.80;99.90;;;;;;5073654;28;19920;-88
2022/10/09 07:57:30;;;;;;;;;;;8.90;99.90;;;;;;5074729;28;19908;-89
2022/10/09 07:59:55;;;;;;;;;;;9.00;99.90;;;;;;5090363;28;20021;-88
2022/10/09 08:02:21;;;;;;;;;;;9.00;99.90;;;;;;5090957;28;19908;-89
2022/10/09 08:04:46;;;;;;;;;;;9.00;99.90;;;;;;5073337;28;19908;-88
2022/10/09 08:07:12;;;;;;;;;;;9.10;99.90;;;;;;5091055;28;19908;-87
2022/10/09 08:09:38;;;;;;;;;;;9.10;99.90;;;;;;5057468;28;19915;-89
2022/10/09 08:12:04;;;;;;;;;;;9.20;99.90;;;;;;5072816;28;20359;-89
2022/10/09 08:14:29;;;;;;;;;;;9.30;99.90;;;;;;5091674;28;19912;-87
2022/10/09 08:16:55;;;;;;;;;;;9.30;99.90;;;;;;5075306;28;19904;-87
2022/10/09 08:19:20;;;;;;;;;;;9.40;99.90;;;;;;5073906;28;19964;-89
2022/10/09 08:21:46;;;;;;;;;;;9.40;99.90;;;;;;5056858;28;20113;-89
2022/10/09 08:24:12;;;;;;;;;;;9.50;99.90;;;;;;5066306;28;19947;-90
2022/10/09 08:26:37;;;;;;;;;;;9.50;99.90;;;;;;5057242;28;19908;-88
2022/10/09 08:29:04;;;;;;;;;;;9.70;99.90;;;;;;5057324;28;19908;-88
2022/10/09 08:31:30;;;;;;;;;;;9.60;99.90;;;;;;5057100;28;19912;-87
2022/10/09 08:33:57;;;;;;;;;;;9.70;99.90;;;;;;5056827;28;19912;-88
2022/10/09 08:36:45;;;;;;;;;;;9.70;99.90;;;;;;5090834;28;19908;-88
2022/10/09 08:39:10;;;;;;;;;;;9.80;99.90;;;;;;5105448;28;19968;-87
2022/10/09 08:41:40;;;;;;;;;;;9.90;99.90;;;;;;5090645;28;20008;-88
2022/10/09 08:44:11;;;;;;;;;;;9.90;99.90;;;;;;5086473;28;20629;-87
2022/10/09 08:46:49;;;;;;;;;;;10.00;99.90;;;;;;5107610;28;20314;-88
2022/10/09 08:49:24;;;;;;;;;;;10.10;99.90;;;;;;5103288;28;19919;-88
2022/10/09 08:51:51;;;;;;;;;;;10.10;99.90;;;;;;5090893;28;19914;-88
2022/10/09 08:54:34;;;;;;;;;;;10.20;99.90;;;;;;5056458;28;19908;-88
2022/10/09 08:57:01;;;;;;;;;;;10.20;99.90;;;;;;5089174;28;20758;-88
2022/10/09 08:59:26;;;;;;;;;;;10.30;99.90;;;;;;5055836;28;19908;-89
2022/10/09 09:02:15;;;;;;;;;;;10.40;99.90;;;;;;5072115;28;19912;-89
2022/10/09 09:04:58;;;;;;;;;;;10.50;99.90;;;;;;5055654;28;19909;-88
2022/10/09 09:07:42;;;;;;;;;;;10.80;99.90;;;;;;5051244;28;20370;-89
2022/10/09 09:10:08;;;;;;;;;;;11.30;99.90;;;;;;5103141;28;19908;-88
2022/10/09 09:12:41;;;;;;;;;;;11.90;99.90;;;;;;5090005;28;19919;-89
2022/10/09 09:15:25;;;;;;;;;;;12.50;99.90;;;;;;5084341;28;20003;-89
2022/10/09 09:18:13;;;;;;;;;;;13.00;99.90;;;;;;5105508;28;24147;-89
2022/10/09 09:20:42;;;;;;;;;;;13.50;99.90;;;;;;5071910;28;19908;-89
2022/10/09 09:23:11;;;;;;;;;;;14.00;99.90;;;;;;5057848;28;19889;-89
2022/10/09 09:25:38;;;;;;;;;;;14.60;99.90;;;;;;5060215;28;19935;-89
2022/10/09 09:28:16;;;;;;;;;;;14.60;99.90;;;;;;5076488;28;20041;-89
2022/10/09 09:31:01;;;;;;;;;;;14.70;99.90;;;;;;5076126;28;20039;-89
2022/10/09 09:33:36;;;;;;;;;;;15.00;99.90;;;;;;5076186;28;19916;-89
2022/10/09 09:36:21;;;;;;;;;;;15.10;99.90;;;;;;5076199;28;20046;-89
2022/10/09 09:38:47;;;;;;;;;;;15.20;99.90;;;;;;5061007;28;20459;-87
2022/10/09 09:41:13;;;;;;;;;;;15.00;99.90;;;;;;5086833;28;20074;-90
2022/10/09 09:43:38;;;;;;;;;;;15.10;99.90;;;;;;5060601;28;20021;-87
2022/10/09 09:46:11;;;;;;;;;;;15.40;99.90;;;;;;5060120;28;20059;-88
2022/10/09 09:48:38;;;;;;;;;;;15.40;99.90;;;;;;5059583;28;20440;-88
2022/10/09 09:51:05;;;;;;;;;;;15.20;99.90;;;;;;5076143;28;19912;-88
2022/10/09 09:53:32;;;;;;;;;;;15.20;99.90;;;;;;5091746;28;20053;-88
2022/10/09 09:55:58;;;;;;;;;;;15.50;99.90;;;;;;5075655;28;20032;-89
2022/10/09 09:58:30;;;;;;;;;;;15.40;99.90;;;;;;5092654;28;19927;-89
2022/10/09 10:00:57;;;;;;;;;;;15.80;99.90;;;;;;5093152;28;19919;-90
2022/10/09 10:03:23;;;;;;;;;;;16.30;99.90;;;;;;5058593;28;20036;-90
2022/10/09 10:05:49;;;;;;;;;;;16.70;99.90;;;;;;5110205;28;20032;-89
2022/10/09 10:08:25;;;;;;;;;;;16.50;99.90;;;;;;5076506;28;20418;-90
2022/10/09 10:10:52;;;;;;;;;;;16.20;99.90;;;;;;5092545;28;20074;-90
2022/10/09 10:13:19;;;;;;;;;;;15.60;99.90;;;;;;5058565;28;20740;-90
2022/10/09 10:15:51;;;;;;;;;;;15.50;99.90;;;;;;5109637;28;20020;-89
2022/10/09 10:18:17;;;;;;;;;;;16.10;99.90;;;;;;5058680;28;20115;-89
2022/10/09 10:20:51;;;;;;;;;;;15.90;99.90;;;;;;5058372;28;19943;-90
2022/10/09 10:23:19;;;;;;;;;;;15.80;99.90;;;;;;5074454;28;20597;-88
2022/10/09 10:25:45;;;;;;;;;;;15.70;99.90;;;;;;5057976;28;20870;-88
2022/10/09 10:28:14;;;;;;;;;;;15.30;99.90;;;;;;5058395;28;20067;-90
2022/10/09 10:30:40;;;;;;;;;;;15.00;99.90;;;;;;5057831;28;20048;-89
2022/10/09 10:33:15;;;;;;;;;;;15.00;99.90;;;;;;5057616;28;20473;-90
2022/10/09 10:35:42;;;;;;;;;;;14.90;99.90;;;;;;5057104;28;20051;-89
2022/10/09 10:38:19;;;;;;;;;;;14.90;99.90;;;;;;5074473;28;20045;-90
2022/10/09 10:40:48;;;;;;;;;;;14.70;99.90;;;;;;5057503;28;20033;-89
2022/10/09 10:43:21;;;;;;;;;;;14.60;99.90;;;;;;5057397;28;20056;-89
2022/10/09 10:45:59;;;;;;;;;;;14.70;99.90;;;;;;5057257;28;20033;-89
2022/10/09 10:48:29;;;;;;;;;;;14.90;99.90;;;;;;5073842;28;19994;-89
2022/10/09 10:51:14;;;;;;;;;;;14.80;99.90;;;;;;5073950;28;20419;-89
2022/10/09 10:53:47;;;;;;;;;;;14.80;99.90;;;;;;5073990;28;20042;-88
2022/10/09 10:56:22;;;;;;;;;;;14.80;99.90;;;;;;5057431;28;20025;-89
2022/10/09 10:59:06;;;;;;;;;;;15.10;99.90;;;;;;5091260;28;20489;-89
2022/10/09 11:01:32;;;;;;;;;;;15.40;99.90;;;;;;5057667;28;20763;-89
2022/10/09 11:03:58;;;;;;;;;;;15.20;99.90;;;;;;5090902;28;20061;-88
2022/10/09 11:06:26;;;;;;;;;;;15.00;99.90;;;;;;5074224;28;20032;-89
2022/10/09 11:09:12;;;;;;;;;;;15.30;99.90;;;;;;5057145;28;19943;-89
2022/10/09 11:15:25;;;;;;;;;;;16.10;99.90;;;;;;5070081;28;20157;-89
2022/10/09 11:17:51;;;;;;;;;;;16.70;99.90;;;;;;5073958;28;20043;-89
2022/10/09 11:20:26;;;;;;;;;;;17.10;99.90;;;;;;5074315;28;20029;-89
2022/10/09 11:23:05;;;;;;;;;;;17.20;99.90;;;;;;5091043;28;20077;-89
2022/10/09 11:25:40;;;;;;;;;;;16.90;99.90;;;;;;5057870;28;20459;-88
2022/10/09 11:28:17;;;;;;;;;;;16.70;99.90;;;;;;5083184;28;20047;-88
2022/10/09 11:30:47;;;;;;;;;;;16.80;99.90;;;;;;5056432;28;20063;-89
2022/10/09 11:33:15;;;;;;;;;;;16.40;99.90;;;;;;5057567;28;20040;-88
2022/10/09 11:35:51;;;;;;;;;;;16.70;99.90;;;;;;5056503;28;20030;-88
2022/10/09 11:38:19;;;;;;;;;;;16.60;99.90;;;;;;5073352;28;20035;-88
2022/10/09 11:40:45;;;;;;;;;;;16.50;99.90;;;;;;5056298;28;20475;-89
2022/10/09 11:43:10;;;;;;;;;;;16.60;99.90;;;;;;5090140;28;19958;-89
2022/10/09 11:45:54;;;;;;;;;;;17.30;99.90;;;;;;5074758;28;20487;-88
2022/10/09 11:48:34;;;;;;;;;;;17.60;99.90;;;;;;5084553;28;20050;-88
2022/10/09 11:51:03;;;;;;;;;;;17.90;99.90;;;;;;5056983;28;20084;-90
2022/10/09 11:53:33;;;;;;;;;;;18.30;99.90;;;;;;5090390;28;20091;-88
2022/10/09 11:56:07;;;;;;;;;;;18.30;99.90;;;;;;5057485;28;20057;-89
2022/10/09 11:58:33;;;;;;;;;;;18.20;99.90;;;;;;5090332;28;20139;-88
2022/10/09 12:01:18;;;;;;;;;;;17.60;99.90;;;;;;5090298;28;20795;-89
2022/10/09 12:03:44;;;;;;;;;;;17.80;99.90;;;;;;5073218;28;20032;-89
2022/10/09 12:06:14;;;;;;;;;;;17.70;99.90;;;;;;5056983;28;20024;-88
2022/10/09 12:08:42;;;;;;;;;;;18.00;99.90;;;;;;5053832;28;20050;-88
2022/10/09 12:11:10;;;;;;;;;;;18.40;99.90;;;;;;5055980;28;20129;-88
2022/10/09 12:13:35;;;;;;;;;;;17.50;99.90;;;;;;5056293;28;19912;-89
2022/10/09 12:16:02;;;;;;;;;;;17.00;99.90;;;;;;5107062;28;20724;-90
2022/10/09 12:18:38;;;;;;;;;;;16.80;99.90;;;;;;5056591;28;20031;-90
2022/10/09 12:21:06;;;;;;;;;;;17.00;99.90;;;;;;5073434;28;20058;-87
2022/10/09 12:23:34;;;;;;;;;;;17.10;99.90;;;;;;5072717;28;20033;-88
2022/10/09 12:26:00;;;;;;;;;;;16.60;99.90;;;;;;5073856;28;20028;-87
2022/10/09 12:28:33;;;;;;;;;;;16.30;99.90;;;;;;5055824;28;20093;-87
2022/10/09 12:30:59;;;;;;;;;;;16.10;99.90;;;;;;5072987;28;20552;-90
2022/10/09 12:33:37;;;;;;;;;;;16.00;99.90;;;;;;5071972;28;20032;-89
2022/10/09 12:36:05;;;;;;;;;;;16.20;99.90;;;;;;5055058;28;20600;-89
2022/10/09 12:38:31;;;;;;;;;;;16.20;99.90;;;;;;5055840;28;20040;-88
2022/10/09 12:40:59;;;;;;;;;;;16.50;99.90;;;;;;5056270;28;20041;-89
2022/10/09 12:43:24;;;;;;;;;;;16.50;99.90;;;;;;5056253;28;20057;-88
2022/10/09 12:45:51;;;;;;;;;;;16.50;99.90;;;;;;5056330;28;19908;-89
2022/10/09 12:48:21;;;;;;;;;;;16.40;99.90;;;;;;5056017;28;20039;-89
2022/10/09 12:50:47;;;;;;;;;;;16.50;99.90;;;;;;5056411;28;20029;-88
2022/10/09 12:53:13;;;;;;;;;;;16.30;99.90;;;;;;5114969;28;20052;-88
2022/10/09 12:55:46;;;;;;;;;;;16.20;99.90;;;;;;5077234;28;20022;-89
2022/10/09 12:58:14;;;;;;;;;;;16.10;99.90;;;;;;5060201;28;19963;-89
2022/10/09 13:00:40;;;;;;;;;;;16.10;99.90;;;;;;5095445;28;20084;-88
2022/10/09 13:03:18;;;;;;;;;;;15.90;99.90;;;;;;5076933;28;20478;-88
2022/10/09 13:05:44;;;;;;;;;;;15.70;99.90;;;;;;5078021;28;20130;-88
2022/10/09 13:08:26;;;;;;;;;;;15.30;99.90;;;;;;5060672;28;20598;-89
2022/10/09 13:10:52;;;;;;;;;;;14.90;99.90;;;;;;5076592;28;20048;-88
2022/10/09 13:13:25;;;;;;;;;;;14.70;99.90;;;;;;5059075;28;20087;-88
2022/10/09 13:15:58;;;;;;;;;;;14.60;99.90;;;;;;5092135;28;20059;-88
2022/10/09 13:18:23;;;;;;;;;;;14.50;99.90;;;;;;5059451;28;20216;-89
2022/10/09 13:21:16;;;;;;;;;;;14.50;99.90;;;;;;5092033;28;20032;-89
2022/10/09 13:23:42;;;;;;;;;;;14.40;99.90;;;;;;5058168;28;20321;-89
2022/10/09 13:26:16;;;;;;;;;;;14.30;99.90;;;;;;5059291;28;20032;-88
2022/10/09 13:28:42;;;;;;;;;;;14.30;99.90;;;;;;5058647;28;20166;-88
2022/10/09 13:31:07;;;;;;;;;;;14.20;99.90;;;;;;5058703;28;20074;-88
2022/10/09 13:33:33;;;;;;;;;;;14.20;99.90;;;;;;5057741;28;20371;-88
2022/10/09 13:35:58;;;;;;;;;;;14.10;99.90;;;;;;5057996;28;19905;-88
2022/10/09 13:38:24;;;;;;;;;;;14.10;99.90;;;;;;5074900;28;19934;-88
2022/10/09 13:40:50;;;;;;;;;;;14.10;99.90;;;;;;5058505;28;20438;-88
2022/10/09 13:43:22;;;;;;;;;;;14.10;99.90;;;;;;5074546;28;19908;-88
2022/10/09 13:45:48;;;;;;;;;;;14.10;99.90;;;;;;5073934;28;19912;-88
2022/10/09 13:48:14;;;;;;;;;;;14.10;99.90;;;;;;5057575;28;20009;-88
2022/10/09 13:50:39;;;;;;;;;;;14.10;99.90;;;;;;5075613;28;19908;-88
2022/10/09 13:53:05;;;;;;;;;;;14.10;99.90;;;;;;5058012;28;20036;-88
2022/10/09 13:55:31;;;;;;;;;;;14.10;99.90;;;;;;5058907;28;20068;-88
2022/10/09 13:57:56;;;;;;;;;;;14.10;99.90;;;;;;5057503;28;19916;-88
2022/10/09 14:00:22;;;;;;;;;;;14.00;99.90;;;;;;5075814;28;20038;-88
2022/10/09 14:02:47;;;;;;;;;;;14.00;99.90;;;;;;5074671;28;20350;-88
2022/10/09 14:05:13;;;;;;;;;;;14.00;99.90;;;;;;5074734;28;19915;-88
2022/10/09 14:07:38;;;;;;;;;;;14.00;99.90;;;;;;5074490;28;20573;-88
2022/10/09 14:10:04;;;;;;;;;;;13.90;99.90;;;;;;5073926;28;19908;-88
2022/10/09 14:12:30;;;;;;;;;;;14.00;99.90;;;;;;5074432;28;20043;-88
2022/10/09 14:14:55;;;;;;;;;;;14.00;99.90;;;;;;5057459;28;19912;-89
2022/10/09 14:17:21;;;;;;;;;;;13.90;99.90;;;;;;5058094;28;20413;-88
2022/10/09 14:19:47;;;;;;;;;;;13.90;99.90;;;;;;5076440;28;20038;-88
2022/10/09 14:22:13;;;;;;;;;;;13.90;99.90;;;;;;5075179;28;20046;-88
2022/10/09 14:24:39;;;;;;;;;;;13.90;99.90;;;;;;5108001;28;20039;-88
2022/10/09 14:27:05;;;;;;;;;;;13.90;99.90;;;;;;5074246;28;19915;-88
2022/10/09 14:29:31;;;;;;;;;;;13.90;99.90;;;;;;5108396;28;19908;-88
2022/10/09 14:31:57;;;;;;;;;;;13.90;99.90;;;;;;5056934;28;19916;-88
2022/10/09 14:34:22;;;;;;;;;;;13.80;99.90;;;;;;5057220;28;19912;-88
2022/10/09 14:36:48;;;;;;;;;;;13.90;99.90;;;;;;5091265;28;20038;-88
2022/10/09 14:39:14;;;;;;;;;;;13.90;99.90;;;;;;5074131;28;20023;-88
2022/10/09 14:41:40;;;;;;;;;;;13.80;99.90;;;;;;5090907;28;20129;-88
2022/10/09 14:44:06;;;;;;;;;;;13.80;99.90;;;;;;5057393;28;20046;-88
2022/10/09 14:46:36;;;;;;;;;;;13.80;99.90;;;;;;5091102;28;20052;-87
2022/10/09 14:49:06;;;;;;;;;;;13.80;99.90;;;;;;5056813;28;19919;-88